Time;durP1;ratioP1;P1;durP2;ratioP2;P2;SDS_P1;SDS_P2;PMS_P1;PMS_P2;Temp;Humidity;BMP_temperature;BMP_pressure;BME280_temperature;BME280_humidity;BME280_pressure;Samples;Min_cycle;Max_cycle;Signal;HPM_P1;HPM_P2
2022/08/31 00:05:58;;;;;;;;;;;22.50;74.50;;;;;;5016053;28;1258;-64
2022/08/31 00:08:23;;;;;;;;;;;22.50;74.50;;;;;;5015706;28;2244;-64
2022/08/31 00:10:49;;;;;;;;;;;22.50;74.50;;;;;;5015791;28;1142;-64
2022/08/31 00:13:15;;;;;;;;;;;22.50;74.50;;;;;;5015883;28;879;-65
2022/08/31 00:15:40;;;;;;;;;;;22.50;74.50;;;;;;5014855;28;1211;-66
2022/08/31 00:18:05;;;;;;;;;;;22.40;74.50;;;;;;5015813;28;1065;-65
2022/08/31 00:20:31;;;;;;;;;;;22.40;74.50;;;;;;5017218;28;1217;-65
2022/08/31 00:22:56;;;;;;;;;;;22.50;74.50;;;;;;5015807;28;1914;-65
2022/08/31 00:25:22;;;;;;;;;;;22.40;74.50;;;;;;5016042;28;1338;-63
2022/08/31 00:27:48;;;;;;;;;;;22.50;74.50;;;;;;5017372;28;1228;-63
2022/08/31 00:30:13;;;;;;;;;;;22.40;74.50;;;;;;5015901;28;1168;-64
2022/08/31 00:32:39;;;;;;;;;;;22.50;74.50;;;;;;5015938;28;1321;-64
2022/08/31 00:35:05;;;;;;;;;;;22.40;74.50;;;;;;5016211;28;1280;-64
2022/08/31 00:37:30;;;;;;;;;;;22.50;74.50;;;;;;5016492;28;812;-65
2022/08/31 00:39:55;;;;;;;;;;;22.50;74.50;;;;;;5015189;28;950;-65
2022/08/31 00:42:22;;;;;;;;;;;22.40;74.50;;;;;;5015885;28;1901;-66
2022/08/31 00:44:47;;;;;;;;;;;22.40;74.50;;;;;;5014787;28;1200;-65
2022/08/31 00:47:14;;;;;;;;;;;22.50;74.50;;;;;;5016083;28;878;-65
2022/08/31 00:49:39;;;;;;;;;;;22.50;74.50;;;;;;5015008;28;894;-64
2022/08/31 00:52:07;;;;;;;;;;;22.50;74.50;;;;;;5014661;28;903;-64
2022/08/31 00:54:33;;;;;;;;;;;22.50;74.60;;;;;;5014889;28;1209;-64
2022/08/31 00:56:59;;;;;;;;;;;22.40;74.50;;;;;;5014903;28;827;-64
2022/08/31 00:59:24;;;;;;;;;;;22.40;74.50;;;;;;5014667;28;792;-65
2022/08/31 01:01:50;;;;;;;;;;;22.50;74.60;;;;;;5014386;28;1949;-63
2022/08/31 01:04:15;;;;;;;;;;;22.50;74.50;;;;;;5015940;28;788;-62
2022/08/31 01:06:40;;;;;;;;;;;22.50;75.30;;;;;;5015957;28;891;-65
2022/08/31 01:09:06;;;;;;;;;;;22.50;74.60;;;;;;5014532;28;1081;-64
2022/08/31 01:11:32;;;;;;;;;;;22.50;74.60;;;;;;5014373;28;882;-64
2022/08/31 01:13:57;;;;;;;;;;;22.50;74.60;;;;;;5014464;28;1103;-64
2022/08/31 01:16:25;;;;;;;;;;;22.50;74.60;;;;;;5074478;22;2023;-68
2022/08/31 01:18:50;;;;;;;;;;;22.40;74.60;;;;;;5075505;28;810;-68
2022/08/31 01:21:18;;;;;;;;;;;22.50;74.60;;;;;;5057048;28;1913;-68
2022/08/31 01:23:44;;;;;;;;;;;22.50;74.60;;;;;;5057534;28;934;-68
2022/08/31 01:26:11;;;;;;;;;;;22.50;74.60;;;;;;5056943;28;1312;-68
2022/08/31 01:28:36;;;;;;;;;;;22.50;74.60;;;;;;5057305;28;1178;-68
2022/08/31 01:31:04;;;;;;;;;;;22.50;74.60;;;;;;5074880;28;811;-68
2022/08/31 01:33:29;;;;;;;;;;;22.50;74.60;;;;;;5075075;28;874;-68
2022/08/31 01:35:55;;;;;;;;;;;22.50;74.60;;;;;;5040407;28;1274;-68
2022/08/31 01:38:20;;;;;;;;;;;22.40;74.60;;;;;;5057197;28;800;-68
2022/08/31 01:40:51;;;;;;;;;;;22.40;74.60;;;;;;5056826;28;1893;-68
2022/08/31 01:43:16;;;;;;;;;;;22.40;74.60;;;;;;5056734;28;953;-68
2022/08/31 01:45:42;;;;;;;;;;;22.40;74.60;;;;;;5074584;28;1297;-69
2022/08/31 01:48:07;;;;;;;;;;;22.40;74.60;;;;;;5056882;28;867;-69
2022/08/31 01:50:32;;;;;;;;;;;22.50;74.70;;;;;;5074809;28;783;-69
2022/08/31 01:52:58;;;;;;;;;;;22.50;74.60;;;;;;5074330;28;850;-69
2022/08/31 01:55:23;;;;;;;;;;;22.50;74.70;;;;;;5074400;28;1199;-67
2022/08/31 01:57:49;;;;;;;;;;;22.50;74.70;;;;;;5056486;28;1452;-67
2022/08/31 02:00:14;;;;;;;;;;;22.50;74.60;;;;;;5074389;28;1025;-67
2022/08/31 02:02:40;;;;;;;;;;;22.40;74.60;;;;;;5074071;28;1898;-67
2022/08/31 02:05:05;;;;;;;;;;;22.40;74.60;;;;;;5056467;28;1198;-67
2022/08/31 02:07:31;;;;;;;;;;;22.50;74.70;;;;;;5056414;28;879;-67
2022/08/31 02:09:57;;;;;;;;;;;22.50;74.70;;;;;;5074350;28;819;-67
2022/08/31 02:12:22;;;;;;;;;;;22.40;74.60;;;;;;5055930;28;893;-67
2022/08/31 02:14:48;;;;;;;;;;;22.40;74.60;;;;;;5056228;28;1025;-67
2022/08/31 02:17:13;;;;;;;;;;;22.50;74.70;;;;;;5073755;28;1209;-67
2022/08/31 02:19:39;;;;;;;;;;;22.40;74.60;;;;;;5073553;28;1306;-67
2022/08/31 02:22:04;;;;;;;;;;;22.40;74.60;;;;;;5073733;28;1906;-67
2022/08/31 02:24:30;;;;;;;;;;;22.40;74.60;;;;;;5074140;28;791;-68
2022/08/31 02:26:55;;;;;;;;;;;22.40;74.60;;;;;;5068045;28;1212;-68
2022/08/31 02:29:21;;;;;;;;;;;22.40;74.60;;;;;;5053976;28;803;-68
2022/08/31 02:31:46;;;;;;;;;;;22.40;74.60;;;;;;5053678;28;986;-67
2022/08/31 02:34:12;;;;;;;;;;;22.40;74.60;;;;;;5054016;28;791;-67
2022/08/31 02:36:38;;;;;;;;;;;22.40;74.60;;;;;;5054155;28;1203;-68
2022/08/31 02:39:04;;;;;;;;;;;22.40;74.70;;;;;;5036110;28;882;-68
2022/08/31 02:41:29;;;;;;;;;;;22.40;74.70;;;;;;5053137;28;1890;-68
2022/08/31 02:43:54;;;;;;;;;;;22.40;74.60;;;;;;5053709;28;840;-67
2022/08/31 02:46:20;;;;;;;;;;;22.40;74.70;;;;;;5053310;28;1187;-68
2022/08/31 02:48:45;;;;;;;;;;;22.40;74.70;;;;;;5053721;28;868;-68
2022/08/31 02:51:11;;;;;;;;;;;22.40;74.60;;;;;;5035754;28;725;-68
2022/08/31 02:53:36;;;;;;;;;;;22.40;74.60;;;;;;5035688;28;966;-68
2022/08/31 02:56:02;;;;;;;;;;;22.40;74.60;;;;;;5053120;28;1199;-68
2022/08/31 02:58:28;;;;;;;;;;;22.40;74.60;;;;;;5035630;28;1014;-68
2022/08/31 03:00:53;;;;;;;;;;;22.40;74.60;;;;;;5035552;28;1895;-68
2022/08/31 03:03:19;;;;;;;;;;;22.40;74.60;;;;;;5053200;28;947;-68
2022/08/31 03:05:44;;;;;;;;;;;22.40;74.60;;;;;;5035334;28;1279;-69
2022/08/31 03:08:10;;;;;;;;;;;22.40;74.60;;;;;;5035441;28;835;-69
2022/08/31 03:10:35;;;;;;;;;;;22.40;74.60;;;;;;5053574;28;803;-69
2022/08/31 03:13:00;;;;;;;;;;;22.40;74.70;;;;;;5052926;28;791;-68
2022/08/31 03:15:26;;;;;;;;;;;22.40;74.70;;;;;;5052841;28;1160;-67
2022/08/31 03:17:51;;;;;;;;;;;22.40;74.60;;;;;;5053197;28;807;-67
2022/08/31 03:20:17;;;;;;;;;;;22.40;74.70;;;;;;5041531;28;1255;-67
2022/08/31 03:22:42;;;;;;;;;;;22.40;74.70;;;;;;5054856;28;1906;-68
2022/08/31 03:25:08;;;;;;;;;;;22.40;74.60;;;;;;5072729;28;1210;-68
2022/08/31 03:27:35;;;;;;;;;;;22.40;74.70;;;;;;5061995;28;1110;-67
2022/08/31 03:30:01;;;;;;;;;;;22.40;74.70;;;;;;5035436;28;903;-68
2022/08/31 03:32:26;;;;;;;;;;;22.40;74.70;;;;;;5033932;28;843;-68
2022/08/31 03:34:53;;;;;;;;;;;22.40;74.70;;;;;;5053181;28;784;-68
2022/08/31 03:37:20;;;;;;;;;;;22.40;74.70;;;;;;5052666;28;1230;-67
2022/08/31 03:39:46;;;;;;;;;;;22.40;74.70;;;;;;5052704;28;827;-68
2022/08/31 03:42:12;;;;;;;;;;;22.40;74.70;;;;;;5034517;28;1897;-67
2022/08/31 03:44:37;;;;;;;;;;;22.40;74.70;;;;;;5053030;28;807;-67
2022/08/31 03:47:03;;;;;;;;;;;22.40;74.70;;;;;;5052530;28;1277;-67
2022/08/31 03:49:29;;;;;;;;;;;22.40;74.70;;;;;;5052821;28;1002;-67
2022/08/31 03:51:54;;;;;;;;;;;22.40;74.70;;;;;;5034541;28;1408;-67
2022/08/31 03:54:20;;;;;;;;;;;22.40;74.70;;;;;;5052522;28;851;-67
2022/08/31 03:56:45;;;;;;;;;;;22.40;74.70;;;;;;5034667;28;1301;-67
2022/08/31 03:59:11;;;;;;;;;;;22.40;74.70;;;;;;5052862;28;835;-67
2022/08/31 04:01:36;;;;;;;;;;;22.40;74.80;;;;;;5034377;28;1963;-67
2022/08/31 04:04:02;;;;;;;;;;;22.40;74.70;;;;;;5052709;28;827;-67
2022/08/31 04:06:28;;;;;;;;;;;22.40;74.70;;;;;;5052246;28;1415;-67
2022/08/31 04:08:54;;;;;;;;;;;22.40;74.70;;;;;;5034670;28;827;-67
2022/08/31 04:11:19;;;;;;;;;;;22.40;74.70;;;;;;5034608;28;868;-67
2022/08/31 04:13:45;;;;;;;;;;;22.40;74.70;;;;;;5052500;28;800;-67
2022/08/31 04:16:11;;;;;;;;;;;22.40;74.70;;;;;;5034510;28;1207;-67
2022/08/31 04:18:40;;;;;;;;;;;22.40;74.70;;;;;;5052478;28;875;-67
2022/08/31 04:21:16;;;;;;;;;;;22.40;74.70;;;;;;5064990;28;1969;-67
2022/08/31 04:23:41;;;;;;;;;;;22.40;74.70;;;;;;5054155;28;812;-68
2022/08/31 04:26:13;;;;;;;;;;;22.40;74.70;;;;;;5070229;28;2299;-67
2022/08/31 04:28:39;;;;;;;;;;;22.40;74.70;;;;;;5072491;28;1182;-67
2022/08/31 04:31:07;;;;;;;;;;;22.40;74.70;;;;;;5072130;28;875;-67
2022/08/31 04:33:34;;;;;;;;;;;22.40;74.70;;;;;;5054625;28;1070;-67
2022/08/31 04:36:00;;;;;;;;;;;22.40;74.70;;;;;;5054211;28;1282;-68
2022/08/31 04:38:25;;;;;;;;;;;22.40;74.70;;;;;;5054260;28;1417;-68
2022/08/31 04:40:51;;;;;;;;;;;22.40;74.70;;;;;;5054346;28;2014;-68
2022/08/31 04:43:16;;;;;;;;;;;22.40;74.70;;;;;;5073306;28;926;-66
2022/08/31 04:45:42;;;;;;;;;;;22.40;74.70;;;;;;5075764;28;1296;-67
2022/08/31 04:48:07;;;;;;;;;;;22.40;74.80;;;;;;5058305;28;855;-67
2022/08/31 04:50:33;;;;;;;;;;;22.40;74.70;;;;;;5075709;28;815;-67
2022/08/31 04:52:58;;;;;;;;;;;22.40;74.70;;;;;;5075590;28;791;-67
2022/08/31 04:55:23;;;;;;;;;;;22.40;74.70;;;;;;5075569;28;1285;-67
2022/08/31 04:57:49;;;;;;;;;;;22.40;74.70;;;;;;5075938;28;835;-67
2022/08/31 05:00:15;;;;;;;;;;;22.40;74.70;;;;;;5075745;28;787;-68
2022/08/31 05:02:40;;;;;;;;;;;22.40;74.80;;;;;;5075344;28;1898;-68
2022/08/31 05:05:06;;;;;;;;;;;22.40;74.70;;;;;;5075240;28;1212;-67
2022/08/31 05:07:31;;;;;;;;;;;22.40;74.80;;;;;;5075762;28;897;-67
2022/08/31 05:09:57;;;;;;;;;;;22.40;74.80;;;;;;5075561;28;933;-67
2022/08/31 05:12:22;;;;;;;;;;;22.40;74.70;;;;;;5075095;28;941;-69
2022/08/31 05:14:48;;;;;;;;;;;22.40;74.70;;;;;;5075431;28;818;-69
2022/08/31 05:17:15;;;;;;;;;;;22.40;74.70;;;;;;5075045;28;1260;-69
2022/08/31 05:19:41;;;;;;;;;;;22.40;74.70;;;;;;5075252;28;1305;-67
2022/08/31 05:22:07;;;;;;;;;;;22.40;74.80;;;;;;5075317;28;1909;-68
2022/08/31 05:24:34;;;;;;;;;;;22.40;74.70;;;;;;5075195;28;1068;-68
2022/08/31 05:27:00;;;;;;;;;;;22.40;74.70;;;;;;5074906;28;1211;-69
2022/08/31 05:29:25;;;;;;;;;;;22.40;74.70;;;;;;5075182;28;1018;-68
2022/08/31 05:31:50;;;;;;;;;;;22.40;74.70;;;;;;5074642;28;1005;-69
2022/08/31 05:34:16;;;;;;;;;;;22.40;74.70;;;;;;5074936;28;1064;-69
2022/08/31 05:36:42;;;;;;;;;;;22.40;74.70;;;;;;5057050;28;1220;-68
2022/08/31 05:39:10;;;;;;;;;;;22.40;74.70;;;;;;5057057;28;1081;-68
2022/08/31 05:41:36;;;;;;;;;;;22.40;74.70;;;;;;5056922;28;1953;-68
2022/08/31 05:44:02;;;;;;;;;;;22.40;74.70;;;;;;5074966;28;902;-69
2022/08/31 05:46:28;;;;;;;;;;;22.40;74.70;;;;;;5056772;28;1193;-67
2022/08/31 05:48:54;;;;;;;;;;;22.40;74.70;;;;;;5074569;28;800;-68
2022/08/31 05:51:19;;;;;;;;;;;22.40;74.80;;;;;;5074486;28;925;-67
2022/08/31 05:53:45;;;;;;;;;;;22.40;74.70;;;;;;5074569;28;811;-68
2022/08/31 05:56:11;;;;;;;;;;;22.40;74.80;;;;;;5073535;28;1200;-68
2022/08/31 05:58:37;;;;;;;;;;;22.40;74.80;;;;;;5074537;28;906;-68
2022/08/31 06:01:03;;;;;;;;;;;22.40;74.80;;;;;;5056364;28;1898;-68
2022/08/31 06:03:29;;;;;;;;;;;22.40;74.80;;;;;;5074286;28;870;-68
2022/08/31 06:05:54;;;;;;;;;;;22.40;74.80;;;;;;5056419;28;1294;-68
2022/08/31 06:08:20;;;;;;;;;;;22.40;74.70;;;;;;5074387;28;1080;-68
2022/08/31 06:10:45;;;;;;;;;;;22.40;74.00;;;;;;5074281;28;716;-67
2022/08/31 06:13:14;;;;;;;;;;;22.40;74.00;;;;;;5065778;28;1838;-68
2022/08/31 06:15:40;;;;;;;;;;;22.40;72.80;;;;;;5064087;28;1887;-69
2022/08/31 06:18:06;;;;;;;;;;;22.40;72.70;;;;;;5055278;28;1027;-69
2022/08/31 06:20:35;;;;;;;;;;;22.40;72.20;;;;;;5072797;28;1087;-69
2022/08/31 06:23:02;;;;;;;;;;;22.40;71.80;;;;;;5072558;28;1910;-67
2022/08/31 06:25:28;;;;;;;;;;;22.40;71.70;;;;;;5072998;28;1297;-68
2022/08/31 06:27:55;;;;;;;;;;;22.40;71.50;;;;;;5059349;28;1102;-68
2022/08/31 06:30:25;;;;;;;;;;;22.40;70.50;;;;;;5052930;28;784;-67
2022/08/31 06:32:51;;;;;;;;;;;22.40;70.70;;;;;;5052862;28;840;-68
2022/08/31 06:35:16;;;;;;;;;;;22.30;70.10;;;;;;5052621;28;1206;-69
2022/08/31 06:37:42;;;;;;;;;;;22.30;70.30;;;;;;5052667;28;879;-69
2022/08/31 06:40:07;;;;;;;;;;;22.30;69.90;;;;;;5052864;28;883;-67
2022/08/31 06:42:33;;;;;;;;;;;22.30;69.80;;;;;;5034594;28;1953;-67
2022/08/31 06:44:58;;;;;;;;;;;22.30;69.90;;;;;;5030437;28;9668;-67
2022/08/31 06:47:24;;;;;;;;;;;22.30;69.30;;;;;;5032395;28;1001;-68
2022/08/31 06:49:50;;;;;;;;;;;22.30;69.40;;;;;;5032891;28;807;-68
2022/08/31 06:52:16;;;;;;;;;;;22.30;69.30;;;;;;5032395;28;1076;-68
2022/08/31 06:54:41;;;;;;;;;;;22.30;69.50;;;;;;5032681;28;874;-66
2022/08/31 06:57:07;;;;;;;;;;;22.30;69.00;;;;;;5031200;28;1330;-68
2022/08/31 06:59:32;;;;;;;;;;;22.30;69.10;;;;;;5033514;28;788;-67
2022/08/31 07:01:58;;;;;;;;;;;22.30;68.70;;;;;;5032930;28;1968;-66
2022/08/31 07:04:23;;;;;;;;;;;22.30;69.20;;;;;;5033471;28;796;-67
2022/08/31 07:06:49;;;;;;;;;;;22.30;69.70;;;;;;5033131;28;1279;-67
2022/08/31 07:09:16;;;;;;;;;;;22.30;69.10;;;;;;5033285;28;815;-67
2022/08/31 07:11:42;;;;;;;;;;;22.20;69.00;;;;;;5032030;28;894;-67
2022/08/31 07:14:08;;;;;;;;;;;22.30;69.00;;;;;;5032022;28;867;-67
2022/08/31 07:16:34;;;;;;;;;;;22.30;68.40;;;;;;5033394;28;1693;-68
2022/08/31 07:19:00;;;;;;;;;;;22.30;67.90;;;;;;5032070;28;981;-68
2022/08/31 07:21:26;;;;;;;;;;;22.20;68.00;;;;;;5033343;28;1972;-67
2022/08/31 07:23:52;;;;;;;;;;;22.30;68.00;;;;;;5033184;28;887;-68
2022/08/31 07:26:37;;;;;;;;;;;22.20;67.90;;;;;;5031927;28;1310;-68
2022/08/31 07:29:05;;;;;;;;;;;22.20;68.20;;;;;;5032097;28;828;-67
2022/08/31 07:31:39;;;;;;;;;;;22.20;67.70;;;;;;5033084;28;884;-67
2022/08/31 07:34:09;;;;;;;;;;;22.20;67.80;;;;;;5033088;28;831;-67
2022/08/31 07:42:07;;;;;;;;;;;22.20;67.70;;;;;;5050009;28;1621;-67
2022/08/31 07:42:10;;;;;;;;;;;22.20;67.20;;;;;;5044318;28;1902;-67
2022/08/31 07:44:36;;;;;;;;;;;22.20;67.40;;;;;;5051754;28;910;-67
2022/08/31 07:47:02;;;;;;;;;;;22.20;67.20;;;;;;5051519;28;1314;-67
2022/08/31 07:49:27;;;;;;;;;;;22.20;66.60;;;;;;5052771;28;823;-67
2022/08/31 07:51:56;;;;;;;;;;;22.20;66.70;;;;;;5052427;28;947;-67
2022/08/31 07:54:26;;;;;;;;;;;22.20;66.10;;;;;;5052631;28;950;-67
2022/08/31 07:56:51;;;;;;;;;;;22.20;66.00;;;;;;5052666;28;1200;-67
2022/08/31 07:59:17;;;;;;;;;;;22.20;66.10;;;;;;5052787;28;897;-67
2022/08/31 08:01:43;;;;;;;;;;;22.20;64.50;;;;;;5052681;28;1958;-67
2022/08/31 08:04:12;;;;;;;;;;;22.20;65.50;;;;;;5052698;28;862;-67
2022/08/31 08:06:37;;;;;;;;;;;22.20;64.80;;;;;;5051231;28;1215;-67
2022/08/31 08:09:06;;;;;;;;;;;22.20;65.30;;;;;;5052566;28;947;-67
2022/08/31 08:11:32;;;;;;;;;;;22.20;64.90;;;;;;5052635;28;960;-67
2022/08/31 08:13:58;;;;;;;;;;;22.20;65.80;;;;;;5052570;28;835;-67
2022/08/31 08:16:23;;;;;;;;;;;22.20;65.60;;;;;;5052193;28;1200;-67
2022/08/31 08:18:49;;;;;;;;;;;22.20;65.60;;;;;;5054581;28;860;-67
2022/08/31 08:21:14;;;;;;;;;;;22.20;65.60;;;;;;5055270;28;1902;-68
2022/08/31 08:23:40;;;;;;;;;;;22.20;65.80;;;;;;5056469;28;847;-67
2022/08/31 08:26:06;;;;;;;;;;;22.20;65.70;;;;;;5056418;28;1286;-67
2022/08/31 08:28:31;;;;;;;;;;;22.20;65.80;;;;;;5036332;28;1217;-67
2022/08/31 08:31:00;;;;;;;;;;;22.20;65.40;;;;;;5034830;28;962;-67
2022/08/31 08:33:28;;;;;;;;;;;22.20;65.40;;;;;;5034990;28;871;-67
2022/08/31 08:35:55;;;;;;;;;;;22.20;65.10;;;;;;5034767;28;1334;-68
2022/08/31 08:38:22;;;;;;;;;;;22.20;65.10;;;;;;5036159;28;843;-67
2022/08/31 08:40:49;;;;;;;;;;;22.20;65.30;;;;;;5036111;28;812;-67
2022/08/31 08:43:15;;;;;;;;;;;22.20;65.20;;;;;;5034490;28;1894;-67
2022/08/31 08:45:41;;;;;;;;;;;22.20;65.40;;;;;;5035779;28;1202;-67
2022/08/31 08:48:08;;;;;;;;;;;22.20;64.80;;;;;;5035794;28;775;-67
2022/08/31 08:50:35;;;;;;;;;;;22.20;64.60;;;;;;5034660;28;804;-67
2022/08/31 08:53:04;;;;;;;;;;;22.20;64.10;;;;;;5034484;28;815;-67
2022/08/31 08:55:33;;;;;;;;;;;22.20;64.90;;;;;;5035647;28;1291;-67
2022/08/31 08:57:59;;;;;;;;;;;22.20;65.50;;;;;;5035948;28;815;-67
2022/08/31 09:00:25;;;;;;;;;;;22.20;64.50;;;;;;5034663;28;889;-68
2022/08/31 09:02:56;;;;;;;;;;;22.20;61.20;;;;;;5035405;28;1902;-68
2022/08/31 09:05:34;;;;;;;;;;;22.20;60.20;;;;;;5035530;28;1223;-67
2022/08/31 09:08:16;;;;;;;;;;;22.20;59.50;;;;;;5035714;28;796;-67
2022/08/31 09:10:48;;;;;;;;;;;22.20;58.70;;;;;;5034495;28;878;-67
2022/08/31 09:13:35;;;;;;;;;;;22.20;58.00;;;;;;5035282;28;798;-67
2022/08/31 09:16:03;;;;;;;;;;;22.10;57.40;;;;;;5034115;28;1310;-67
2022/08/31 09:18:39;;;;;;;;;;;22.20;58.30;;;;;;5035486;28;845;-67
2022/08/31 09:21:19;;;;;;;;;;;22.10;59.40;;;;;;5034346;28;1969;-67
2022/08/31 09:23:47;;;;;;;;;;;22.10;60.20;;;;;;5034184;28;831;-67
2022/08/31 09:26:16;;;;;;;;;;;22.10;61.20;;;;;;5034097;28;1290;-67
2022/08/31 09:28:43;;;;;;;;;;;22.10;60.80;;;;;;5053757;28;1454;-67
2022/08/31 09:31:12;;;;;;;;;;;22.10;60.90;;;;;;5054841;28;893;-67
2022/08/31 09:33:45;;;;;;;;;;;22.20;62.00;;;;;;5053825;28;1384;-67
2022/08/31 09:36:15;;;;;;;;;;;22.20;62.30;;;;;;5053591;28;1275;-67
2022/08/31 09:38:42;;;;;;;;;;;22.20;62.60;;;;;;5053826;28;780;-67
2022/08/31 09:41:26;;;;;;;;;;;22.20;61.70;;;;;;5053478;28;1897;-67
2022/08/31 09:43:51;;;;;;;;;;;22.20;62.00;;;;;;5054966;28;978;-68
2022/08/31 09:46:23;;;;;;;;;;;22.20;62.10;;;;;;5054611;28;1204;-67
2022/08/31 09:48:55;;;;;;;;;;;22.20;62.00;;;;;;5054711;28;974;-67
2022/08/31 09:51:20;;;;;;;;;;;22.20;61.70;;;;;;5054610;28;885;-67
2022/08/31 09:56:54;;;;;;;;;;;22.20;62.70;;;;;;5020620;28;1323;-67
2022/08/31 09:59:28;;;;;;;;;;;22.20;62.70;;;;;;5053388;28;854;-67
2022/08/31 10:01:54;;;;;;;;;;;22.20;61.80;;;;;;5054599;28;1947;-68
2022/08/31 10:04:22;;;;;;;;;;;22.20;62.00;;;;;;5054669;28;815;-68
2022/08/31 10:07:06;;;;;;;;;;;22.20;60.00;;;;;;5053373;28;1326;-67
2022/08/31 10:09:35;;;;;;;;;;;22.20;58.80;;;;;;5054532;28;807;-67
2022/08/31 10:12:03;;;;;;;;;;;22.20;58.70;;;;;;5054136;28;905;-67
2022/08/31 10:14:55;;;;;;;;;;;22.20;59.50;;;;;;5053161;28;808;-68
2022/08/31 10:17:24;;;;;;;;;;;22.20;59.90;;;;;;5050860;28;1314;-67
2022/08/31 10:19:52;;;;;;;;;;;22.20;60.00;;;;;;5052880;28;899;-67
2022/08/31 10:22:26;;;;;;;;;;;22.20;60.20;;;;;;5052995;28;1910;-67
2022/08/31 10:25:00;;;;;;;;;;;22.20;60.00;;;;;;5054054;28;843;-67
2022/08/31 10:27:37;;;;;;;;;;;22.20;59.60;;;;;;5047917;28;1897;-68
2022/08/31 10:30:06;;;;;;;;;;;22.20;59.50;;;;;;5048869;28;1107;-68
2022/08/31 10:32:34;;;;;;;;;;;22.20;58.80;;;;;;5040231;28;1221;-68
2022/08/31 10:35:04;;;;;;;;;;;22.30;58.70;;;;;;5045395;28;1201;-68
2022/08/31 10:37:37;;;;;;;;;;;22.30;58.80;;;;;;5044562;28;1166;-69
2022/08/31 10:40:05;;;;;;;;;;;22.30;58.40;;;;;;5032667;28;991;-68
2022/08/31 10:42:37;;;;;;;;;;;22.30;58.90;;;;;;5032033;28;1955;-68
2022/08/31 10:45:13;;;;;;;;;;;22.20;58.90;;;;;;5032454;28;1294;-69
2022/08/31 10:47:41;;;;;;;;;;;22.30;57.70;;;;;;5032616;28;977;-68
2022/08/31 10:50:08;;;;;;;;;;;22.30;57.30;;;;;;5032512;28;815;-68
2022/08/31 10:52:48;;;;;;;;;;;22.30;57.00;;;;;;5032510;28;923;-69
2022/08/31 10:55:18;;;;;;;;;;;22.30;56.50;;;;;;5032203;28;1187;-69
2022/08/31 10:57:51;;;;;;;;;;;22.30;57.70;;;;;;5032404;28;847;-69
2022/08/31 11:03:06;;;;;;;;;;;22.30;58.80;;;;;;5032143;28;1906;-68
2022/08/31 11:05:37;;;;;;;;;;;22.30;58.80;;;;;;5033280;28;1220;-69
2022/08/31 11:08:12;;;;;;;;;;;22.20;58.60;;;;;;5033409;28;983;-68
2022/08/31 11:10:50;;;;;;;;;;;22.30;58.60;;;;;;5033455;28;816;-68
2022/08/31 11:13:37;;;;;;;;;;;22.20;57.50;;;;;;5031848;28;843;-68
2022/08/31 11:16:16;;;;;;;;;;;22.20;57.90;;;;;;5032878;28;1201;-68
2022/08/31 11:19:07;;;;;;;;;;;22.20;56.90;;;;;;5031917;28;1227;-68
2022/08/31 11:21:34;;;;;;;;;;;22.30;56.50;;;;;;5024305;28;1964;-68
2022/08/31 11:24:10;;;;;;;;;;;22.30;56.70;;;;;;5031917;28;1439;-68
2022/08/31 11:26:43;;;;;;;;;;;22.30;55.60;;;;;;5034622;28;1370;-69
2022/08/31 11:29:11;;;;;;;;;;;22.30;55.30;;;;;;5051797;28;815;-69
2022/08/31 11:31:37;;;;;;;;;;;22.30;55.70;;;;;;5051399;28;871;-69
2022/08/31 11:34:24;;;;;;;;;;;22.30;55.30;;;;;;5052919;28;835;-69
2022/08/31 11:36:56;;;;;;;;;;;22.30;55.20;;;;;;5052545;28;1301;-69
2022/08/31 11:39:25;;;;;;;;;;;22.30;55.80;;;;;;5052806;28;894;-69
2022/08/31 11:41:51;;;;;;;;;;;22.30;56.80;;;;;;5051377;28;1948;-69
2022/08/31 11:44:29;;;;;;;;;;;22.30;55.80;;;;;;5051601;28;843;-69
2022/08/31 11:47:05;;;;;;;;;;;22.30;55.80;;;;;;5052644;28;1218;-68
2022/08/31 11:49:42;;;;;;;;;;;22.30;56.30;;;;;;5034975;28;1374;-67
2022/08/31 11:52:33;;;;;;;;;;;22.30;56.00;;;;;;5052700;28;740;-66
2022/08/31 11:55:00;;;;;;;;;;;22.30;55.00;;;;;;5047363;28;1121;-67
2022/08/31 11:57:30;;;;;;;;;;;22.30;55.80;;;;;;5055679;28;894;-66
2022/08/31 11:59:56;;;;;;;;;;;22.30;56.80;;;;;;5055524;28;895;-66
2022/08/31 12:02:21;;;;;;;;;;;22.30;57.80;;;;;;5056345;28;1902;-67
2022/08/31 12:05:01;;;;;;;;;;;22.30;58.30;;;;;;5056688;28;828;-66
2022/08/31 12:07:35;;;;;;;;;;;22.30;58.80;;;;;;5039274;28;1459;-67
2022/08/31 12:10:00;;;;;;;;;;;22.30;59.20;;;;;;5055281;28;733;-66
2022/08/31 12:12:32;;;;;;;;;;;22.30;59.60;;;;;;5056342;28;832;-66
2022/08/31 12:15:01;;;;;;;;;;;22.30;59.80;;;;;;5056546;28;855;-68
2022/08/31 12:17:50;;;;;;;;;;;22.30;60.00;;;;;;5056364;28;903;-68
2022/08/31 12:20:16;;;;;;;;;;;22.20;60.40;;;;;;5040003;28;1238;-67
2022/08/31 12:25:53;;;;;;;;;;;22.20;60.90;;;;;;5036620;28;1204;-68
2022/08/31 12:28:37;;;;;;;;;;;22.20;61.20;;;;;;5052071;28;1179;-67
2022/08/31 12:31:03;;;;;;;;;;;22.20;62.20;;;;;;5055958;28;950;-67
2022/08/31 12:33:29;;;;;;;;;;;22.20;61.80;;;;;;5055023;28;807;-68
2022/08/31 12:36:09;;;;;;;;;;;22.20;61.90;;;;;;5054779;28;1673;-68
2022/08/31 12:38:34;;;;;;;;;;;22.20;62.00;;;;;;5056227;28;815;-67
2022/08/31 12:41:00;;;;;;;;;;;22.20;62.10;;;;;;5055950;28;1009;-68
2022/08/31 12:43:37;;;;;;;;;;;22.20;62.40;;;;;;5055734;28;1887;-66
2022/08/31 12:46:11;;;;;;;;;;;22.20;62.60;;;;;;5055890;28;1203;-67
2022/08/31 12:48:40;;;;;;;;;;;22.20;62.70;;;;;;5055886;28;886;-67
2022/08/31 12:51:15;;;;;;;;;;;22.20;62.80;;;;;;5054657;28;844;-67
2022/08/31 12:54:19;;;;;;;;;;;22.20;62.90;;;;;;5055877;28;856;-67
2022/08/31 12:56:44;;;;;;;;;;;22.20;63.10;;;;;;4974430;28;1298;-68
2022/08/31 12:59:28;;;;;;;;;;;22.20;63.20;;;;;;4974654;28;864;-68
2022/08/31 13:01:53;;;;;;;;;;;22.20;63.40;;;;;;5021473;28;1910;-67
2022/08/31 13:04:19;;;;;;;;;;;22.20;63.50;;;;;;5055074;28;796;-67
2022/08/31 13:06:47;;;;;;;;;;;22.20;63.70;;;;;;5054335;28;1278;-68
2022/08/31 13:09:31;;;;;;;;;;;22.20;63.70;;;;;;5055695;28;846;-68
2022/08/31 13:11:58;;;;;;;;;;;22.20;64.50;;;;;;5055701;28;900;-67
2022/08/31 13:14:28;;;;;;;;;;;22.20;63.90;;;;;;5054132;28;859;-67
2022/08/31 13:16:54;;;;;;;;;;;22.30;64.00;;;;;;5069897;22;2021;-66
2022/08/31 13:19:25;;;;;;;;;;;22.20;64.10;;;;;;5051756;28;887;-65
2022/08/31 13:21:55;;;;;;;;;;;22.20;64.20;;;;;;5069404;28;1913;-66
2022/08/31 13:24:40;;;;;;;;;;;22.30;64.30;;;;;;5054288;28;897;-65
2022/08/31 13:27:16;;;;;;;;;;;22.20;64.40;;;;;;5048343;28;1212;-66
2022/08/31 13:29:45;;;;;;;;;;;22.20;64.50;;;;;;5034195;28;895;-66
2022/08/31 13:32:12;;;;;;;;;;;22.30;64.70;;;;;;5034986;28;815;-66
2022/08/31 13:34:41;;;;;;;;;;;22.30;64.70;;;;;;5035276;28;881;-66
2022/08/31 13:37:10;;;;;;;;;;;22.30;64.80;;;;;;5043663;28;2185;-65
2022/08/31 13:39:41;;;;;;;;;;;22.20;64.70;;;;;;5049547;28;1154;-65
2022/08/31 13:42:18;;;;;;;;;;;22.30;64.80;;;;;;5039909;28;1899;-66
2022/08/31 13:44:45;;;;;;;;;;;22.30;65.00;;;;;;5033675;28;1216;-66
2022/08/31 13:47:15;;;;;;;;;;;22.30;65.10;;;;;;5033887;28;1217;-66
2022/08/31 13:49:40;;;;;;;;;;;22.30;65.20;;;;;;5032441;28;820;-66
2022/08/31 13:52:14;;;;;;;;;;;22.30;65.20;;;;;;5033393;28;966;-65
2022/08/31 13:54:39;;;;;;;;;;;22.20;65.20;;;;;;5033728;28;847;-66
2022/08/31 13:57:16;;;;;;;;;;;22.30;65.30;;;;;;5033843;28;1201;-66
2022/08/31 13:59:42;;;;;;;;;;;22.20;65.30;;;;;;5034769;28;807;-66
2022/08/31 14:02:14;;;;;;;;;;;22.30;65.50;;;;;;5034527;28;1902;-66
2022/08/31 14:04:47;;;;;;;;;;;22.20;65.50;;;;;;5034511;28;866;-66
2022/08/31 14:07:20;;;;;;;;;;;22.30;65.60;;;;;;5034765;28;1282;-66
2022/08/31 14:09:50;;;;;;;;;;;22.20;65.50;;;;;;5034860;28;889;-65
2022/08/31 14:12:34;;;;;;;;;;;22.30;65.60;;;;;;5034647;28;898;-65
2022/08/31 14:15:07;;;;;;;;;;;22.30;65.60;;;;;;5033292;28;899;-65
2022/08/31 14:17:33;;;;;;;;;;;22.30;65.70;;;;;;5034122;28;1393;-66
2022/08/31 14:20:19;;;;;;;;;;;22.20;65.60;;;;;;5033417;28;1220;-65
2022/08/31 14:22:48;;;;;;;;;;;22.30;65.70;;;;;;5033995;28;1910;-65
2022/08/31 14:25:14;;;;;;;;;;;22.30;65.70;;;;;;5034448;28;869;-65
2022/08/31 14:27:41;;;;;;;;;;;22.30;65.80;;;;;;5045482;28;1193;-66
2022/08/31 14:30:08;;;;;;;;;;;22.30;65.90;;;;;;5054280;28;819;-66
2022/08/31 14:32:34;;;;;;;;;;;22.30;65.90;;;;;;5054177;28;830;-66
2022/08/31 14:35:01;;;;;;;;;;;22.30;66.00;;;;;;5054341;28;799;-66
2022/08/31 14:37:28;;;;;;;;;;;22.30;66.00;;;;;;5053017;28;1207;-66
2022/08/31 14:39:56;;;;;;;;;;;22.30;66.10;;;;;;5054040;28;847;-66
2022/08/31 14:42:26;;;;;;;;;;;22.30;66.10;;;;;;5052292;28;1905;-66
2022/08/31 14:44:58;;;;;;;;;;;22.30;66.30;;;;;;5052727;28;1033;-66
2022/08/31 14:47:26;;;;;;;;;;;22.30;66.30;;;;;;5053798;28;1623;-67
2022/08/31 14:49:52;;;;;;;;;;;22.30;66.40;;;;;;5053747;28;898;-66
2022/08/31 14:52:17;;;;;;;;;;;22.20;66.30;;;;;;5053595;28;799;-66
2022/08/31 14:54:43;;;;;;;;;;;22.30;66.30;;;;;;5053471;28;835;-66
2022/08/31 14:57:10;;;;;;;;;;;22.30;66.30;;;;;;5053409;28;1236;-66
2022/08/31 14:59:37;;;;;;;;;;;22.20;66.40;;;;;;5053864;28;1010;-66